Time;durP1;ratioP1;P1;durP2;ratioP2;P2;SDS_P1;SDS_P2;PMS_P1;PMS_P2;Temp;Humidity;BMP_temperature;BMP_pressure;BME280_temperature;BME280_humidity;BME280_pressure;Samples;Min_cycle;Max_cycle;Signal;HPM_P1;HPM_P2
2021/03/21 00:00:48;;;;;;;3.35;1.70;;;6.40;66.00;;;;;;2285244;55;21097;-67
2021/03/21 00:03:15;;;;;;;6.12;2.08;;;6.40;65.90;;;;;;2519778;55;21726;-66
2021/03/21 00:05:42;;;;;;;5.37;2.00;;;6.40;66.00;;;;;;2276697;56;21062;-65
2021/03/21 00:08:14;;;;;;;4.80;2.15;;;6.40;65.90;;;;;;2507079;55;20986;-67
2021/03/21 00:10:45;;;;;;;3.87;2.33;;;6.40;65.60;;;;;;2253016;56;20994;-67
2021/03/21 00:13:11;;;;;;;3.85;1.83;;;6.30;65.70;;;;;;2266977;56;20951;-65
2021/03/21 00:15:37;;;;;;;4.12;1.87;;;6.30;65.80;;;;;;2269824;56;20991;-64
2021/03/21 00:18:04;;;;;;;3.67;2.00;;;6.40;65.90;;;;;;2285341;56;20950;-65
2021/03/21 00:20:32;;;;;;;3.37;1.73;;;6.40;65.90;;;;;;2521166;55;20991;-67
2021/03/21 00:23:02;;;;;;;3.83;1.80;;;6.30;65.80;;;;;;2277543;56;20978;-64
2021/03/21 00:25:29;;;;;;;3.42;1.77;;;6.30;65.80;;;;;;2495579;55;21091;-67
2021/03/21 00:27:55;;;;;;;3.47;1.80;;;6.30;65.80;;;;;;2278163;56;20958;-66
2021/03/21 00:30:33;;;;;;;4.78;1.70;;;6.30;65.90;;;;;;2289605;56;20943;-66
2021/03/21 00:32:59;;;;;;;2.72;1.40;;;6.30;65.50;;;;;;2268082;56;20954;-65
2021/03/21 00:35:26;;;;;;;3.55;1.67;;;6.30;65.90;;;;;;2494754;55;20987;-66
2021/03/21 00:38:09;;;;;;;3.40;1.48;;;6.30;66.00;;;;;;2269773;55;20973;-64
2021/03/21 00:40:35;;;;;;;4.10;1.85;;;6.30;65.30;;;;;;2286388;56;20991;-64
2021/03/21 00:43:02;;;;;;;4.57;2.05;;;6.30;65.90;;;;;;2286499;56;20934;-66
2021/03/21 00:45:28;;;;;;;4.78;1.67;;;6.30;65.90;;;;;;2286367;56;21060;-65
2021/03/21 00:47:55;;;;;;;3.22;1.70;;;6.20;65.70;;;;;;2520266;55;20935;-67
2021/03/21 00:50:31;;;;;;;3.10;1.60;;;6.20;65.70;;;;;;2267955;56;20978;-66
2021/03/21 00:52:59;;;;;;;4.25;1.52;;;6.20;65.40;;;;;;2520666;55;21451;-66
2021/03/21 00:55:26;;;;;;;4.93;1.95;;;6.20;65.70;;;;;;2499124;55;21042;-67
2021/03/21 00:57:52;;;;;;;4.40;1.83;;;6.20;65.70;;;;;;2282193;56;20970;-64
2021/03/21 01:00:26;;;;;;;5.00;2.00;;;6.20;65.80;;;;;;2521529;55;20959;-66
2021/03/21 01:02:54;;;;;;;4.43;1.77;;;6.10;65.80;;;;;;2286422;56;20978;-65
2021/03/21 01:05:58;;;;;;;4.60;2.28;;;6.10;66.00;;;;;;2274011;56;21014;-67
2021/03/21 01:08:27;;;;;;;4.65;2.10;;;6.10;65.10;;;;;;2286823;56;21098;-65
2021/03/21 01:10:56;;;;;;;4.68;2.15;;;6.10;65.90;;;;;;2521188;55;20975;-66
2021/03/21 01:13:23;;;;;;;3.62;1.70;;;6.10;65.70;;;;;;2507141;55;20961;-66
2021/03/21 01:15:52;;;;;;;5.35;1.77;;;6.10;65.70;;;;;;2276580;56;21451;-65
2021/03/21 01:18:24;;;;;;;4.05;1.70;;;6.00;65.50;;;;;;2286771;56;21181;-66
2021/03/21 01:20:50;;;;;;;4.10;1.98;;;6.00;65.30;;;;;;2520736;55;20995;-66
2021/03/21 01:23:18;;;;;;;4.50;1.73;;;5.90;65.00;;;;;;2287640;56;20967;-66
2021/03/21 01:25:44;;;;;;;2.90;1.60;;;5.90;65.00;;;;;;2503820;55;21560;-65
2021/03/21 01:28:27;;;;;;;3.55;1.40;;;5.90;65.00;;;;;;2274238;56;21732;-64
2021/03/21 01:30:56;;;;;;;4.10;1.98;;;5.80;64.70;;;;;;2509339;55;20937;-65
2021/03/21 01:33:22;;;;;;;3.53;1.62;;;5.80;65.20;;;;;;2276957;55;20946;-66
2021/03/21 01:35:49;;;;;;;6.28;1.75;;;5.80;65.50;;;;;;2281513;56;20958;-65
2021/03/21 01:38:16;;;;;;;5.32;1.80;;;5.80;65.70;;;;;;2520584;55;21010;-66
2021/03/21 01:40:44;;;;;;;3.47;1.50;;;5.70;65.80;;;;;;2286792;56;20932;-66
2021/03/21 01:43:14;;;;;;;3.00;1.65;;;5.70;66.00;;;;;;2287218;56;21029;-66
2021/03/21 01:45:50;;;;;;;3.87;1.65;;;5.70;66.10;;;;;;2286753;56;21072;-65
2021/03/21 01:48:49;;;;;;;3.53;1.70;;;5.80;66.20;;;;;;2268826;56;20992;-65
2021/03/21 01:51:28;;;;;;;3.97;2.00;;;5.80;66.20;;;;;;2284426;56;20935;-66
2021/03/21 01:53:56;;;;;;;3.70;1.75;;;5.80;66.40;;;;;;2272958;56;21537;-66
2021/03/21 01:56:22;;;;;;;3.65;1.80;;;5.80;66.70;;;;;;2281910;56;20962;-65
2021/03/21 01:59:09;;;;;;;4.55;1.90;;;5.80;66.70;;;;;;2509199;55;21102;-65
2021/03/21 02:01:38;;;;;;;4.00;1.70;;;5.80;66.10;;;;;;2278791;56;20982;-64
2021/03/21 02:04:08;;;;;;;3.10;1.65;;;5.80;66.50;;;;;;2287076;56;21733;-65
2021/03/21 02:08:25;;;;;;;3.90;1.98;;;5.90;66.50;;;;;;2286858;56;20987;-66
2021/03/21 02:13:31;;;;;;;4.10;1.73;;;5.90;64.80;;;;;;2290130;56;20958;-66
2021/03/21 02:16:06;;;;;;;3.97;1.95;;;5.90;64.80;;;;;;2286801;56;20943;-65
2021/03/21 02:20:03;;;;;;;4.35;1.80;;;5.90;66.30;;;;;;2277749;56;21054;-66
2021/03/21 02:22:32;;;;;;;6.32;2.65;;;5.90;66.30;;;;;;2282154;55;21039;-65
2021/03/21 02:26:23;;;;;;;7.10;2.97;;;6.00;66.80;;;;;;2269667;55;20968;-65
2021/03/21 02:29:55;;;;;;;5.32;2.12;;;6.00;65.30;;;;;;2285799;56;21007;-67
2021/03/21 02:32:33;;;;;;;5.03;2.28;;;6.00;66.20;;;;;;2487919;55;21011;-66
2021/03/21 02:35:33;;;;;;;4.12;2.03;;;6.00;66.40;;;;;;2285858;56;20966;-65
2021/03/21 02:39:11;;;;;;;4.55;2.12;;;6.10;66.30;;;;;;2520366;55;21038;-65
2021/03/21 02:41:46;;;;;;;7.18;2.92;;;6.10;66.70;;;;;;2512014;55;21082;-64
2021/03/21 02:44:22;;;;;;;7.95;3.08;;;6.10;66.90;;;;;;2277833;56;21013;-64
2021/03/21 02:46:51;;;;;;;7.40;3.50;;;6.10;66.80;;;;;;2281331;55;21429;-65
2021/03/21 02:49:30;;;;;;;5.80;2.90;;;6.00;66.80;;;;;;2278923;55;21065;-67
2021/03/21 02:52:08;;;;;;;4.90;2.42;;;6.10;66.50;;;;;;2286579;56;21063;-67
2021/03/21 02:54:47;;;;;;;4.15;1.92;;;6.10;66.80;;;;;;2521032;55;20948;-66
2021/03/21 02:57:17;;;;;;;4.80;2.10;;;6.20;66.90;;;;;;2287663;56;20983;-65
2021/03/21 02:59:48;;;;;;;4.03;1.83;;;6.10;66.90;;;;;;2273839;56;21014;-66
2021/03/21 03:02:25;;;;;;;4.72;2.97;;;6.20;66.80;;;;;;2269701;56;21081;-66
2021/03/21 03:04:54;;;;;;;4.70;2.50;;;6.20;66.80;;;;;;2269588;56;21058;-66
2021/03/21 03:07:55;;;;;;;2.92;1.92;;;6.20;66.80;;;;;;2272219;55;21032;-66
2021/03/21 03:12:17;;;;;;;4.35;2.78;;;6.20;66.30;;;;;;2274360;56;21037;-66
2021/03/21 03:14:43;;;;;;;4.47;2.22;;;6.20;65.30;;;;;;2282484;56;20982;-66
2021/03/21 03:17:42;;;;;;;4.00;1.87;;;6.20;66.90;;;;;;2273304;56;21007;-65
2021/03/21 03:24:40;;;;;;;3.62;2.08;;;6.20;66.40;;;;;;2287189;56;20967;-66
2021/03/21 03:27:23;;;;;;;3.40;1.95;;;6.30;65.10;;;;;;2494463;55;20930;-65
2021/03/21 03:29:56;;;;;;;2.95;1.60;;;6.30;66.50;;;;;;2521323;55;21046;-64
2021/03/21 03:32:26;;;;;;;3.08;1.62;;;6.30;66.80;;;;;;2495211;55;20945;-65
2021/03/21 03:34:54;;;;;;;3.55;1.87;;;6.30;67.20;;;;;;2519733;55;20935;-65
2021/03/21 03:37:24;;;;;;;3.65;1.80;;;6.30;67.20;;;;;;2275534;56;21028;-65
2021/03/21 03:39:51;;;;;;;3.92;1.52;;;6.30;67.20;;;;;;2282374;55;20953;-67
2021/03/21 03:45:34;;;;;;;4.37;2.22;;;6.30;67.20;;;;;;2282076;56;22060;-66
2021/03/21 03:51:51;;;;;;;4.18;1.90;;;6.30;66.40;;;;;;2520558;55;21885;-66
2021/03/21 03:54:35;;;;;;;4.53;1.92;;;6.30;66.40;;;;;;2286545;56;21082;-65
2021/03/21 03:57:18;;;;;;;4.03;2.00;;;6.40;66.30;;;;;;2494324;55;21817;-67
2021/03/21 03:59:58;;;;;;;3.60;1.77;;;6.40;66.90;;;;;;2520830;55;21435;-66
2021/03/21 04:03:03;;;;;;;3.10;1.58;;;6.40;66.80;;;;;;2498904;55;20953;-67
2021/03/21 04:06:19;;;;;;;3.20;1.73;;;6.40;67.00;;;;;;2286611;56;21700;-65
2021/03/21 04:15:45;;;;;;;3.08;1.35;;;6.40;66.70;;;;;;2520923;55;20982;-66
2021/03/21 04:18:27;;;;;;;3.15;1.60;;;6.40;66.70;;;;;;2502038;55;21030;-65
2021/03/21 04:20:59;;;;;;;2.80;1.30;;;6.40;66.70;;;;;;2271818;55;20951;-65
2021/03/21 04:23:37;;;;;;;2.67;1.50;;;6.40;67.00;;;;;;2266156;55;20985;-67
2021/03/21 04:26:17;;;;;;;3.00;1.55;;;6.40;66.80;;;;;;2521392;55;20923;-66
2021/03/21 04:28:46;;;;;;;4.43;1.92;;;6.40;66.60;;;;;;2522022;55;20962;-67
2021/03/21 04:31:14;;;;;;;3.22;1.60;;;6.40;67.10;;;;;;2280007;55;20979;-64
2021/03/21 04:33:45;;;;;;;4.60;1.90;;;6.40;67.00;;;;;;2276630;56;20962;-64
2021/03/21 04:36:28;;;;;;;3.42;2.00;;;6.40;67.00;;;;;;2501951;55;21042;-65
2021/03/21 04:38:57;;;;;;;3.75;1.83;;;6.40;66.70;;;;;;2284740;56;20959;-66
2021/03/21 04:41:25;;;;;;;3.75;1.70;;;6.40;67.10;;;;;;2269301;55;20990;-67
2021/03/21 04:44:14;;;;;;;2.97;1.50;;;6.40;67.20;;;;;;2276241;55;20957;-66
2021/03/21 04:46:49;;;;;;;5.95;3.17;;;6.40;66.70;;;;;;2257799;56;21061;-67
2021/03/21 04:49:19;;;;;;;9.32;4.57;;;6.50;67.20;;;;;;2286439;55;21037;-65
2021/03/21 04:51:45;;;;;;;6.78;3.78;;;6.50;67.10;;;;;;2287995;56;20951;-66
2021/03/21 04:54:29;;;;;;;5.78;3.10;;;6.50;67.10;;;;;;2521281;55;20999;-64
2021/03/21 04:57:15;;;;;;;4.75;2.42;;;6.40;66.10;;;;;;2287462;56;20942;-66
2021/03/21 04:59:42;;;;;;;4.12;2.35;;;6.40;66.50;;;;;;2495218;55;21015;-64
2021/03/21 05:02:28;;;;;;;4.15;2.08;;;6.40;66.80;;;;;;2287128;56;21011;-66
2021/03/21 05:05:24;;;;;;;3.70;2.08;;;6.40;66.40;;;;;;2521836;55;21791;-67
2021/03/21 05:07:56;;;;;;;3.78;1.98;;;6.40;66.40;;;;;;2287012;56;20983;-67
2021/03/21 05:10:30;;;;;;;3.97;2.20;;;6.40;66.60;;;;;;2287547;56;20973;-66
2021/03/21 05:14:36;;;;;;;4.22;2.25;;;6.40;66.60;;;;;;2521830;55;20971;-64
2021/03/21 05:17:21;;;;;;;3.67;2.00;;;6.40;66.50;;;;;;2286929;56;20974;-64
2021/03/21 05:21:11;;;;;;;3.35;2.10;;;6.40;66.50;;;;;;2279530;55;21043;-64
2021/03/21 05:24:01;;;;;;;4.37;2.20;;;6.40;65.20;;;;;;2275229;55;21022;-66
2021/03/21 05:26:38;;;;;;;4.20;1.92;;;6.40;66.20;;;;;;2269037;55;21053;-65
2021/03/21 05:30:49;;;;;;;4.12;2.10;;;6.30;66.30;;;;;;2286858;56;20970;-66
2021/03/21 05:33:15;;;;;;;3.95;2.00;;;6.40;66.40;;;;;;2268410;56;20975;-65
2021/03/21 05:35:42;;;;;;;4.18;2.28;;;6.40;67.00;;;;;;2287197;56;21023;-65
2021/03/21 05:38:17;;;;;;;3.62;1.90;;;6.40;67.00;;;;;;2286488;56;21058;-64
2021/03/21 05:44:59;;;;;;;3.42;1.87;;;6.40;66.90;;;;;;2270926;56;21747;-66
2021/03/21 05:48:01;;;;;;;4.15;1.42;;;6.40;65.50;;;;;;2284219;55;20998;-65
2021/03/21 05:54:18;;;;;;;3.03;1.42;;;6.40;66.60;;;;;;2283943;55;21026;-65
2021/03/21 05:57:02;;;;;;;;;;;6.50;65.70;;;;;;2255757;56;21054;-65
2021/03/21 06:00:22;;;;;;;4.87;2.22;;;6.50;65.70;;;;;;2506509;55;20065;-65
2021/03/21 06:03:23;;;;;;;3.92;2.05;;;6.50;66.80;;;;;;2267533;55;21051;-67
2021/03/21 06:06:33;;;;;;;3.45;1.80;;;6.50;66.70;;;;;;2275513;55;21014;-65
2021/03/21 06:09:11;;;;;;;4.68;1.90;;;6.50;66.80;;;;;;2284469;55;21697;-65
2021/03/21 06:11:59;;;;;;;3.72;2.05;;;6.40;67.40;;;;;;2287328;56;20979;-66
2021/03/21 06:21:22;;;;;;;4.00;2.40;;;6.50;67.40;;;;;;2286731;56;20934;-66
2021/03/21 06:24:28;;;;;;;4.55;1.87;;;6.50;65.80;;;;;;2494777;55;21083;-65
2021/03/21 06:27:11;;;;;;;3.90;2.10;;;6.60;66.60;;;;;;2288790;56;20955;-65
2021/03/21 06:30:07;;;;;;;4.60;2.20;;;6.50;67.10;;;;;;2283440;55;21047;-66
2021/03/21 06:32:52;;;;;;;2.80;1.60;;;6.50;66.70;;;;;;2278925;56;20923;-65
2021/03/21 06:35:48;;;;;;;3.97;2.22;;;6.50;67.10;;;;;;2511661;55;21042;-66
2021/03/21 06:40:24;;;;;;;5.30;2.15;;;6.60;67.20;;;;;;2273771;56;21001;-65
2021/03/21 06:43:22;;;;;;;3.47;2.00;;;6.60;67.10;;;;;;2267743;55;21090;-65
2021/03/21 06:47:24;;;;;;;4.62;2.45;;;6.70;67.30;;;;;;2507359;55;21376;-64
2021/03/21 06:52:30;;;;;;;4.00;2.20;;;6.70;66.10;;;;;;2286478;56;21038;-65
2021/03/21 06:55:09;;;;;;;3.50;2.15;;;6.70;67.70;;;;;;2277958;55;20970;-65
2021/03/21 06:59:25;;;;;;;4.50;2.78;;;6.80;67.60;;;;;;2286326;56;20935;-65
2021/03/21 07:02:23;;;;;;;6.28;2.85;;;6.80;66.00;;;;;;2502976;55;21011;-66
2021/03/21 07:09:07;;;;;;;5.60;2.45;;;6.80;67.00;;;;;;2279294;55;21029;-65
2021/03/21 07:15:24;;;;;;;3.95;1.90;;;6.90;66.10;;;;;;2286789;56;20946;-65
2021/03/21 07:18:19;;;;;;;3.65;1.95;;;6.90;67.10;;;;;;2511291;55;21018;-66
2021/03/21 07:21:24;;;;;;;4.05;2.10;;;7.00;67.50;;;;;;2279040;56;20958;-67
2021/03/21 07:24:27;;;;;;;4.75;2.45;;;7.00;67.20;;;;;;2286354;56;22285;-65
2021/03/21 07:27:16;;;;;;;4.60;2.50;;;7.10;67.40;;;;;;2286786;56;20986;-66
2021/03/21 07:29:45;;;;;;;3.83;2.25;;;7.10;67.40;;;;;;2273521;56;21014;-64
2021/03/21 07:32:56;;;;;;;4.72;2.30;;;7.10;67.80;;;;;;2287540;56;20978;-65
2021/03/21 07:38:13;;;;;;;5.93;2.72;;;7.20;66.80;;;;;;2521549;55;22108;-64
2021/03/21 07:41:37;;;;;;;5.75;2.40;;;7.20;66.90;;;;;;2508212;55;20986;-65
2021/03/21 07:44:27;;;;;;;4.72;2.30;;;7.30;66.90;;;;;;2286737;56;21011;-66
2021/03/21 07:47:30;;;;;;;4.18;2.28;;;7.30;66.70;;;;;;2511185;55;21008;-65
2021/03/21 07:59:22;;;;;;;4.62;2.40;;;7.30;66.10;;;;;;2509355;55;21019;-65
2021/03/21 08:01:50;;;;;;;5.43;2.53;;;7.40;65.60;;;;;;2269065;56;20946;-66
2021/03/21 08:04:29;;;;;;;4.40;2.30;;;7.50;67.50;;;;;;2512214;55;20982;-66
2021/03/21 08:07:02;;;;;;;5.32;2.95;;;7.50;67.30;;;;;;2274600;56;20883;-65
2021/03/21 08:09:33;;;;;;;4.90;2.58;;;7.50;67.50;;;;;;2286864;56;20995;-65
2021/03/21 08:12:35;;;;;;;4.18;2.60;;;7.50;67.70;;;;;;2286760;56;21169;-66
2021/03/21 08:15:24;;;;;;;6.57;3.50;;;7.60;67.10;;;;;;2482346;55;20955;-66
2021/03/21 08:18:03;;;;;;;5.95;3.80;;;7.60;66.90;;;;;;2286465;56;21067;-66
2021/03/21 08:20:37;;;;;;;4.80;2.67;;;7.60;67.50;;;;;;2509745;55;21002;-65
2021/03/21 08:23:31;;;;;;;4.57;2.80;;;7.70;67.40;;;;;;2469933;55;20994;-65
2021/03/21 08:26:01;;;;;;;5.97;2.62;;;7.70;66.60;;;;;;2512956;55;21406;-66
2021/03/21 08:28:38;;;;;;;5.12;2.85;;;7.70;67.60;;;;;;2286612;56;21014;-66
2021/03/21 08:31:06;;;;;;;5.75;2.62;;;7.80;67.50;;;;;;2268926;56;21014;-65
2021/03/21 08:33:42;;;;;;;5.35;2.80;;;7.80;67.40;;;;;;2521626;55;20968;-65
2021/03/21 08:36:25;;;;;;;5.47;3.10;;;7.80;66.60;;;;;;2287187;56;20987;-67
2021/03/21 08:39:42;;;;;;;4.70;2.70;;;7.90;66.50;;;;;;2287573;56;20970;-67
2021/03/21 08:42:30;;;;;;;6.15;2.97;;;7.90;65.60;;;;;;2287403;56;20991;-67
2021/03/21 08:45:07;;;;;;;4.72;2.70;;;8.00;67.00;;;;;;2286851;56;21026;-67
2021/03/21 08:47:33;;;;;;;6.20;3.30;;;8.00;66.90;;;;;;2496833;55;21494;-67
2021/03/21 08:50:00;;;;;;;5.28;3.08;;;8.00;67.80;;;;;;2515607;55;20942;-67
2021/03/21 08:52:38;;;;;;;5.30;3.03;;;8.10;68.10;;;;;;2269136;56;21050;-67
2021/03/21 08:55:06;;;;;;;7.72;3.67;;;8.20;67.90;;;;;;2287513;56;21926;-66
2021/03/21 08:57:35;;;;;;;6.47;3.72;;;8.30;67.70;;;;;;2287371;56;20939;-67
2021/03/21 09:00:47;;;;;;;6.18;3.90;;;8.30;67.70;;;;;;2287031;56;20963;-66
2021/03/21 09:03:40;;;;;;;7.55;4.57;;;8.50;67.20;;;;;;2287153;56;21935;-66
2021/03/21 09:06:26;;;;;;;6.72;4.00;;;8.60;67.40;;;;;;2276872;56;20986;-67
2021/03/21 09:08:52;;;;;;;5.93;4.10;;;8.70;67.50;;;;;;2284902;56;21019;-65
2021/03/21 09:11:35;;;;;;;7.47;4.28;;;8.70;66.70;;;;;;2521197;55;20975;-66
2021/03/21 09:14:03;;;;;;;7.95;4.22;;;8.80;66.00;;;;;;2520113;55;21015;-66
2021/03/21 09:16:30;;;;;;;5.20;3.50;;;8.90;66.00;;;;;;2521491;55;21007;-65
2021/03/21 09:19:15;;;;;;;6.35;3.80;;;8.90;65.70;;;;;;2275839;55;21360;-66
2021/03/21 09:21:45;;;;;;;7.60;4.05;;;8.90;65.10;;;;;;2270542;55;21042;-67
2021/03/21 09:24:37;;;;;;;6.43;3.85;;;8.90;66.10;;;;;;2275110;56;20981;-66
2021/03/21 09:27:28;;;;;;;6.53;3.90;;;9.00;65.40;;;;;;2284705;56;20939;-65
2021/03/21 09:29:54;;;;;;;4.95;2.83;;;9.10;65.90;;;;;;2521767;55;21030;-66
2021/03/21 09:32:29;;;;;;;5.65;3.37;;;9.10;66.70;;;;;;2287984;56;21042;-67
2021/03/21 09:35:30;;;;;;;5.37;3.20;;;9.20;66.50;;;;;;2287095;56;21495;-69
2021/03/21 09:37:59;;;;;;;6.80;3.75;;;9.30;65.00;;;;;;2498659;55;20986;-67
2021/03/21 09:40:29;;;;;;;8.10;5.65;;;9.30;65.90;;;;;;2288549;55;20950;-66
2021/03/21 09:42:56;;;;;;;8.93;5.10;;;9.40;65.80;;;;;;2287409;56;21015;-65
2021/03/21 09:45:23;;;;;;;7.47;4.55;;;9.40;65.90;;;;;;2499345;55;20966;-66
2021/03/21 09:48:08;;;;;;;5.97;3.83;;;9.50;64.90;;;;;;2503318;55;21604;-66
2021/03/21 09:51:38;;;;;;;6.75;4.25;;;9.50;63.90;;;;;;2269268;55;21014;-67
2021/03/21 09:56:01;;;;;;;6.10;3.78;;;9.50;64.50;;;;;;2286408;56;20955;-65
2021/03/21 09:58:49;;;;;;;6.40;3.33;;;9.50;62.70;;;;;;2278287;55;20974;-65
2021/03/21 10:01:59;;;;;;;5.93;3.80;;;9.50;63.80;;;;;;2514307;55;20951;-65
2021/03/21 10:04:40;;;;;;;6.15;3.65;;;9.60;63.30;;;;;;2497793;55;21508;-65
2021/03/21 10:07:14;;;;;;;5.07;2.80;;;9.60;64.70;;;;;;2288635;55;20985;-65
2021/03/21 10:09:42;;;;;;;5.87;3.33;;;9.50;64.70;;;;;;2277525;55;20937;-65
2021/03/21 10:12:10;;;;;;;5.60;3.03;;;9.50;64.90;;;;;;2274912;55;21034;-65
2021/03/21 10:14:41;;;;;;;5.70;2.90;;;9.50;65.00;;;;;;2287337;56;20938;-66
2021/03/21 10:18:21;;;;;;;4.95;2.97;;;9.60;64.90;;;;;;2275794;55;21002;-66
2021/03/21 10:24:00;;;;;;;5.50;3.35;;;9.60;62.70;;;;;;2265605;55;21452;-65
2021/03/21 10:26:28;;;;;;;6.00;3.40;;;9.60;62.30;;;;;;2269190;55;20977;-66
2021/03/21 10:30:35;;;;;;;5.93;3.17;;;9.60;64.90;;;;;;2513329;55;21589;-66
2021/03/21 10:33:47;;;;;;;4.78;2.78;;;9.60;64.80;;;;;;2521706;55;21018;-65
2021/03/21 10:36:42;;;;;;;5.78;3.17;;;9.60;63.80;;;;;;2518454;55;21293;-65
2021/03/21 10:39:52;;;;;;;6.05;3.60;;;9.70;65.00;;;;;;2505408;55;20969;-67
2021/03/21 10:49:07;;;;;;;5.55;3.53;;;9.70;65.70;;;;;;2286986;56;20964;-65
2021/03/21 10:59:09;;;;;;;6.15;3.40;;;9.80;62.90;;;;;;2280983;55;21033;-67
2021/03/21 11:01:40;;;;;;;4.22;2.53;;;9.70;63.40;;;;;;2287737;56;21007;-64
2021/03/21 11:04:26;;;;;;;5.83;3.77;;;9.70;65.60;;;;;;2289473;56;20967;-67
2021/03/21 11:07:01;;;;;;;8.30;4.78;;;9.80;64.10;;;;;;2272701;56;20947;-65
2021/03/21 11:09:33;;;;;;;17.10;8.93;;;9.80;65.30;;;;;;2268286;56;21825;-66
2021/03/21 11:12:01;;;;;;;20.00;10.02;;;9.80;65.70;;;;;;2489124;55;20994;-67
2021/03/21 11:14:30;;;;;;;25.30;10.80;;;9.80;66.00;;;;;;2252984;56;22050;-65
2021/03/21 11:17:16;;;;;;;26.12;10.73;;;9.80;66.00;;;;;;2272588;54;21038;-65
2021/03/21 11:19:50;;;;;;;17.10;8.20;;;9.90;66.20;;;;;;2283166;56;21050;-65
2021/03/21 11:23:19;;;;;;;11.25;6.10;;;9.90;66.00;;;;;;2276648;56;20958;-64
2021/03/21 11:25:45;;;;;;;8.50;5.20;;;10.00;62.70;;;;;;2500537;55;20985;-67
2021/03/21 11:28:27;;;;;;;9.43;5.90;;;10.10;65.20;;;;;;2284119;56;21023;-66
2021/03/21 11:30:55;;;;;;;8.55;5.37;;;10.10;64.40;;;;;;2286999;56;22065;-65
2021/03/21 11:33:45;;;;;;;7.40;4.35;;;10.20;65.30;;;;;;2521033;55;21026;-67
2021/03/21 11:38:19;;;;;;;7.80;5.12;;;10.20;64.00;;;;;;2521595;55;21098;-67
2021/03/21 11:40:53;;;;;;;10.48;6.37;;;10.30;62.60;;;;;;2286771;56;20966;-66
2021/03/21 11:43:29;;;;;;;9.80;6.05;;;10.30;63.80;;;;;;2286916;56;20959;-66
2021/03/21 11:46:15;;;;;;;9.68;6.28;;;10.30;63.30;;;;;;2279088;55;20999;-66
2021/03/21 11:48:43;;;;;;;9.57;5.28;;;10.30;63.80;;;;;;2280296;56;21013;-65
2021/03/21 11:51:11;;;;;;;7.18;4.93;;;10.30;64.20;;;;;;2503763;55;20973;-67
2021/03/21 11:53:38;;;;;;;8.82;5.70;;;10.20;64.40;;;;;;2286955;56;21392;-66
2021/03/21 11:57:57;;;;;;;8.70;5.47;;;10.30;64.60;;;;;;2268264;56;21078;-67
2021/03/21 12:00:34;;;;;;;10.82;7.22;;;10.30;63.30;;;;;;2275111;56;21058;-65
2021/03/21 12:03:13;;;;;;;8.68;5.95;;;10.30;64.20;;;;;;2262393;56;20954;-65
2021/03/21 12:05:43;;;;;;;7.82;5.45;;;10.30;64.10;;;;;;2286372;56;20963;-67
2021/03/21 12:08:31;;;;;;;8.85;6.00;;;10.30;64.90;;;;;;2281628;56;21065;-67
2021/03/21 12:11:35;;;;;;;7.97;5.30;;;10.30;64.20;;;;;;2487076;55;21019;-67
2021/03/21 12:15:22;;;;;;;8.07;5.55;;;10.30;64.50;;;;;;2469809;55;20991;-69
2021/03/21 12:17:59;;;;;;;8.88;4.85;;;10.30;63.20;;;;;;2275693;56;20970;-65
2021/03/21 12:21:15;;;;;;;8.65;6.15;;;10.30;64.90;;;;;;2272121;56;21518;-66
2021/03/21 12:24:11;;;;;;;9.73;5.50;;;10.30;62.90;;;;;;2518844;55;20991;-65
2021/03/21 12:26:50;;;;;;;10.70;5.85;;;10.30;63.70;;;;;;2506908;55;21010;-65
2021/03/21 12:31:54;;;;;;;8.63;5.35;;;10.20;63.10;;;;;;2268253;56;20951;-64
2021/03/21 12:34:23;;;;;;;8.00;5.23;;;10.10;61.90;;;;;;2286972;56;21054;-65
2021/03/21 12:37:20;;;;;;;8.20;5.43;;;10.10;64.20;;;;;;2285932;56;20963;-68
2021/03/21 12:40:12;;;;;;;10.73;7.05;;;10.10;63.60;;;;;;2286090;56;20975;-67
2021/03/21 12:42:43;;;;;;;10.48;6.50;;;10.00;63.80;;;;;;2271474;55;20999;-67
2021/03/21 12:45:27;;;;;;;9.55;6.07;;;10.00;63.90;;;;;;2277407;56;21039;-66
2021/03/21 12:48:03;;;;;;;9.00;6.00;;;10.00;63.50;;;;;;2280152;56;20986;-67
2021/03/21 12:50:42;;;;;;;13.40;5.75;;;9.90;64.70;;;;;;2277404;56;20971;-67
2021/03/21 12:53:10;;;;;;;9.60;6.40;;;9.90;64.90;;;;;;2274701;55;22246;-65
2021/03/21 12:55:37;;;;;;;9.50;6.22;;;9.90;65.40;;;;;;2276867;56;20966;-66
2021/03/21 12:58:03;;;;;;;8.75;5.87;;;9.90;65.70;;;;;;2287028;56;21483;-65
2021/03/21 13:00:32;;;;;;;9.23;6.10;;;9.90;65.90;;;;;;2278350;56;21022;-65
2021/03/21 13:02:59;;;;;;;9.35;5.68;;;9.90;66.00;;;;;;2265857;55;20946;-66
2021/03/21 13:05:28;;;;;;;8.52;5.47;;;9.90;66.10;;;;;;2521498;55;21514;-65
2021/03/21 13:07:55;;;;;;;8.23;4.93;;;9.90;66.20;;;;;;2277751;56;21058;-67
2021/03/21 13:10:25;;;;;;;8.07;4.97;;;9.90;66.30;;;;;;2282089;55;21466;-67
2021/03/21 13:12:52;;;;;;;8.95;5.72;;;10.00;65.20;;;;;;2286964;56;20934;-65
2021/03/21 13:15:21;;;;;;;9.60;5.70;;;10.00;65.10;;;;;;2286738;56;21594;-65
2021/03/21 13:17:50;;;;;;;10.63;6.20;;;10.00;64.90;;;;;;2521132;55;21242;-66
2021/03/21 13:20:18;;;;;;;9.02;5.85;;;10.00;64.90;;;;;;2286469;56;21226;-66
2021/03/21 13:22:44;;;;;;;7.30;4.65;;;10.00;65.00;;;;;;2287186;56;21491;-64
2021/03/21 13:25:13;;;;;;;7.78;4.45;;;10.10;65.20;;;;;;2287060;56;20986;-65
2021/03/21 13:27:40;;;;;;;9.15;5.97;;;10.00;65.40;;;;;;2269013;56;20967;-67
2021/03/21 13:30:10;;;;;;;10.57;6.55;;;10.00;65.00;;;;;;2286345;56;20947;-66
2021/03/21 13:32:37;;;;;;;9.60;5.70;;;10.00;64.90;;;;;;2268618;56;20959;-65
2021/03/21 13:35:05;;;;;;;8.20;5.00;;;10.10;64.90;;;;;;2286907;56;21315;-66
2021/03/21 13:37:31;;;;;;;10.20;6.53;;;10.00;64.90;;;;;;2521330;55;20963;-65
2021/03/21 13:39:58;;;;;;;11.12;6.97;;;10.10;64.80;;;;;;2287233;56;21006;-65
2021/03/21 13:42:26;;;;;;;10.52;6.47;;;10.10;63.50;;;;;;2283466;55;21356;-66
2021/03/21 13:44:54;;;;;;;9.35;5.93;;;10.00;63.80;;;;;;2277825;55;20950;-65
2021/03/21 13:47:20;;;;;;;9.25;5.62;;;10.00;63.80;;;;;;2254588;56;21129;-67
2021/03/21 13:49:47;;;;;;;8.98;5.87;;;10.00;63.90;;;;;;2286156;56;21066;-66
2021/03/21 13:52:13;;;;;;;7.97;5.35;;;10.00;64.20;;;;;;2265726;56;21295;-66
2021/03/21 13:54:39;;;;;;;9.57;5.62;;;10.00;64.20;;;;;;2287086;56;21003;-67
2021/03/21 13:57:06;;;;;;;9.05;6.32;;;10.00;64.50;;;;;;2265056;55;20954;-66
2021/03/21 13:59:36;;;;;;;9.52;6.18;;;10.00;64.20;;;;;;2267037;55;21446;-67
2021/03/21 14:02:02;;;;;;;9.32;6.50;;;10.00;63.90;;;;;;2287252;56;20964;-67
2021/03/21 14:04:32;;;;;;;10.60;7.10;;;10.00;63.90;;;;;;2286620;56;21724;-67
2021/03/21 14:06:58;;;;;;;8.50;6.05;;;10.00;63.40;;;;;;2287124;56;20935;-65
2021/03/21 14:09:25;;;;;;;8.60;5.30;;;10.00;63.50;;;;;;2494660;55;21003;-66
2021/03/21 14:11:52;;;;;;;8.18;5.45;;;10.00;63.90;;;;;;2274789;56;21012;-66
2021/03/21 14:14:21;;;;;;;8.35;6.00;;;10.00;64.20;;;;;;2282968;55;21377;-65
2021/03/21 14:16:48;;;;;;;9.35;6.03;;;10.00;63.80;;;;;;2266067;55;21589;-66
2021/03/21 14:19:18;;;;;;;10.02;6.30;;;10.10;63.60;;;;;;2286563;56;21018;-66
2021/03/21 14:21:45;;;;;;;10.10;7.28;;;10.10;63.00;;;;;;2268005;55;21010;-66
2021/03/21 14:24:11;;;;;;;8.85;6.12;;;10.00;61.90;;;;;;2276653;55;20990;-66
2021/03/21 14:26:38;;;;;;;11.00;7.15;;;10.00;62.10;;;;;;2507098;55;21002;-67
2021/03/21 14:29:05;;;;;;;11.07;6.75;;;10.00;62.10;;;;;;2261309;55;21836;-65
2021/03/21 14:31:31;;;;;;;10.25;6.65;;;9.90;63.40;;;;;;2498377;55;21832;-66
2021/03/21 14:33:58;;;;;;;9.10;6.60;;;9.90;63.30;;;;;;2490671;55;20985;-67
2021/03/21 14:36:25;;;;;;;10.32;6.85;;;9.90;63.50;;;;;;2513434;55;20994;-66
2021/03/21 14:38:53;;;;;;;10.77;6.40;;;9.80;63.50;;;;;;2282921;56;21006;-67
2021/03/21 14:41:19;;;;;;;9.35;6.45;;;9.80;63.70;;;;;;2503399;55;21464;-65
2021/03/21 14:43:46;;;;;;;9.27;6.12;;;9.80;64.10;;;;;;2263796;56;21006;-65
2021/03/21 14:46:12;;;;;;;11.50;6.70;;;9.80;64.40;;;;;;2507308;55;21086;-67
2021/03/21 14:48:39;;;;;;;8.70;6.25;;;9.80;64.60;;;;;;2287551;56;20987;-65
2021/03/21 14:51:07;;;;;;;12.55;7.18;;;9.90;65.10;;;;;;2507028;55;21089;-67
2021/03/21 14:53:33;;;;;;;11.20;7.32;;;9.90;65.00;;;;;;2484221;55;21410;-66
2021/03/21 14:56:00;;;;;;;10.45;6.45;;;9.90;65.10;;;;;;2493671;55;21447;-67
2021/03/21 14:58:29;;;;;;;10.68;6.72;;;9.90;65.40;;;;;;2275449;55;21002;-66
2021/03/21 15:00:58;;;;;;;11.10;7.62;;;9.90;65.20;;;;;;2502749;55;21025;-67
2021/03/21 15:03:25;;;;;;;15.50;8.40;;;9.90;65.10;;;;;;2283471;55;21061;-69
2021/03/21 15:05:51;;;;;;;11.48;7.87;;;9.90;64.50;;;;;;2520905;55;21031;-66
2021/03/21 15:08:25;;;;;;;11.65;7.75;;;9.90;64.60;;;;;;2272677;56;21025;-66
2021/03/21 15:10:54;;;;;;;11.25;7.47;;;10.00;63.60;;;;;;2495314;55;21061;-67
2021/03/21 15:13:21;;;;;;;10.90;6.75;;;9.90;64.90;;;;;;2282520;56;21526;-66
2021/03/21 15:15:49;;;;;;;12.50;7.78;;;9.90;65.20;;;;;;2286648;56;20970;-65
2021/03/21 15:18:26;;;;;;;14.32;8.43;;;9.90;64.70;;;;;;2520776;55;20982;-66
2021/03/21 15:20:56;;;;;;;11.48;7.90;;;9.90;64.30;;;;;;2494070;55;20994;-65
2021/03/21 15:23:26;;;;;;;10.60;7.32;;;9.90;63.90;;;;;;2289251;56;20978;-67
2021/03/21 15:25:53;;;;;;;9.50;6.32;;;9.90;64.40;;;;;;2251539;56;21075;-67